Dublin, Texas
Current Conditions -  °F | °C
As of 6:55 AM on Friday 24 Oct 2014 (Local Time) from KSEP Reporting Station
Clear Clear  
Wind Chill: 58°   Ceiling: Unl
Heat Index: 58°   Visibility: 10mi
Dew Point: 55°   Wind: 3mph
Humidity: 88%   Direction: 190°S
Pressure: 30.15"   Gusts: NA
Location:  32.09°N, 98.34°W
Report Text: KSEP 241155Z AUTO 19003KT 10SM CLR 15/13 A3015 RMK AO2 T01460126 10170 20146
Loading
Personal Weather Stations






























Interactive Weather Map
Tropical Storm Tracking
New forecast layout! Learn more

10-Day Weather Forecast

Advertisements
Track Severe Weather on mobile